createdAt,value
2018-07-10T00:01:05.273Z,64.08
2018-07-10T00:03:45.734Z,63.22
2018-07-10T00:07:28.649Z,63.08
2018-07-10T00:10:14.998Z,64.98
2018-07-10T00:12:43.355Z,66.18
2018-07-10T00:15:11.770Z,66.48
2018-07-10T00:17:40.120Z,66.90
2018-07-10T00:20:08.714Z,66.32
2018-07-10T00:22:37.077Z,66.28
2018-07-10T00:25:06.473Z,67.04
2018-07-10T00:27:35.445Z,65.46
2018-07-10T00:30:04.698Z,66.52
2018-07-10T00:32:36.000Z,68.00
2018-07-10T00:35:04.871Z,68.35
2018-07-10T00:37:34.192Z,66.47
2018-07-10T00:40:04.377Z,65.58
2018-07-10T00:42:34.413Z,65.12
2018-07-10T00:45:03.845Z,65.33
2018-07-10T00:47:34.321Z,66.74
2018-07-10T00:50:04.341Z,65.72
2018-07-10T00:52:34.826Z,67.25
2018-07-10T00:55:04.209Z,67.65
2018-07-10T00:57:33.842Z,66.34
2018-07-10T01:00:03.828Z,67.54
2018-07-10T01:02:32.777Z,66.46
2018-07-10T01:05:01.569Z,68.46
2018-07-10T01:07:30.960Z,65.73
2018-07-10T01:09:59.318Z,64.76
2018-07-10T01:12:27.656Z,65.71
2018-07-10T01:14:56.236Z,67.38
2018-07-10T01:17:24.581Z,66.80
2018-07-10T01:19:52.937Z,66.26
2018-07-10T01:22:21.280Z,68.03
2018-07-10T01:24:49.629Z,68.64
2018-07-10T01:27:17.988Z,66.23
2018-07-10T01:29:49.545Z,66.53
2018-07-10T01:32:18.098Z,67.35
2018-07-10T01:34:46.442Z,67.89
2018-07-10T01:37:14.872Z,66.52
2018-07-10T01:39:43.236Z,67.08
2018-07-10T01:42:11.591Z,67.74
2018-07-10T01:44:39.947Z,65.93
2018-07-10T01:47:08.312Z,65.90
2018-07-10T01:49:36.666Z,65.35
2018-07-10T01:52:05.738Z,64.30
2018-07-10T01:54:34.830Z,65.37
2018-07-10T01:57:05.797Z,65.68
2018-07-10T01:59:35.160Z,65.18
2018-07-10T02:02:05.117Z,64.80
2018-07-10T02:04:34.714Z,64.68
2018-07-10T02:07:03.776Z,63.83
2018-07-10T02:09:33.837Z,64.51
2018-07-10T02:12:04.561Z,64.93
2018-07-10T02:14:35.169Z,65.21
2018-07-10T02:17:05.193Z,65.76
2018-07-10T02:19:34.645Z,68.14
2018-07-10T02:22:04.384Z,67.11
2018-07-10T02:24:34.362Z,65.73
2018-07-10T02:27:05.116Z,65.70
2018-07-10T02:29:34.720Z,65.88
2018-07-10T02:32:03.785Z,67.60
2018-07-10T02:34:34.158Z,69.98
2018-07-10T02:37:03.845Z,69.17
2018-07-10T02:39:34.097Z,70.93
2018-07-10T02:42:04.691Z,69.68
2018-07-10T02:44:35.509Z,70.15
2018-07-10T02:47:03.860Z,70.07
2018-07-10T02:49:33.346Z,70.34
2018-07-10T02:52:03.761Z,71.05
2018-07-10T02:54:36.594Z,70.47
2018-07-10T02:57:07.469Z,70.51
2018-07-10T02:59:39.238Z,70.19
2018-07-10T03:02:12.963Z,70.14
2018-07-10T03:04:41.937Z,71.09
2018-07-10T03:07:13.693Z,70.00
2018-07-10T03:09:42.074Z,70.60
2018-07-10T03:12:10.966Z,70.92
2018-07-10T03:14:39.318Z,68.36
2018-07-10T03:17:07.665Z,68.58
2018-07-10T03:19:37.835Z,70.82
2018-07-10T03:22:06.461Z,69.48
2018-07-10T03:24:35.486Z,71.33
2018-07-10T03:27:06.105Z,69.70
2018-07-10T03:29:35.465Z,68.67
2018-07-10T03:32:03.833Z,71.48
2018-07-10T03:34:34.475Z,72.23
2018-07-10T03:37:03.850Z,72.43
2018-07-10T03:39:35.101Z,71.25
2018-07-10T03:42:04.392Z,71.82
2018-07-10T03:44:34.654Z,73.35
2018-07-10T03:47:04.514Z,72.98
2018-07-10T03:49:34.933Z,71.89
2018-07-10T03:52:03.796Z,71.36
2018-07-10T03:54:38.348Z,72.54
2018-07-10T03:57:06.742Z,72.92
2018-07-10T03:59:41.117Z,74.00
2018-07-10T04:02:09.462Z,73.62
2018-07-10T04:04:37.870Z,73.47
2018-07-10T04:07:06.225Z,74.50
2018-07-10T04:09:35.353Z,74.29
2018-07-10T04:12:03.733Z,72.48
2018-07-10T04:14:34.424Z,74.72
2018-07-10T04:17:05.054Z,72.66
2018-07-10T04:19:33.734Z,71.38
2018-07-10T04:22:05.041Z,70.46
2018-07-10T04:24:34.995Z,72.44
2018-07-10T04:27:14.686Z,71.52
2018-07-10T04:29:52.220Z,69.42
2018-07-10T04:32:20.594Z,68.91
2018-07-10T04:34:50.077Z,70.69
2018-07-10T04:37:18.426Z,69.42
2018-07-10T04:39:46.858Z,72.28
2018-07-10T04:42:35.064Z,70.27
2018-07-10T04:45:04.805Z,72.26
2018-07-10T04:47:58.215Z,68.09
2018-07-10T04:50:31.673Z,68.70
2018-07-10T04:53:06.401Z,67.26
2018-07-10T04:55:38.389Z,67.80
2018-07-10T04:58:09.048Z,67.99
2018-07-10T05:00:44.589Z,67.33
2018-07-10T05:03:13.550Z,68.43
2018-07-10T05:05:42.419Z,68.37
2018-07-10T05:08:10.774Z,67.72
2018-07-10T05:10:39.145Z,70.36
2018-07-10T05:13:07.855Z,71.94
2018-07-10T05:15:36.794Z,68.38
2018-07-10T05:18:07.533Z,69.64
2018-07-10T05:20:36.075Z,67.74
2018-07-10T05:23:05.619Z,69.11
2018-07-10T05:25:39.221Z,67.18
2018-07-10T05:28:07.581Z,66.85
2018-07-10T05:30:36.693Z,67.49
2018-07-10T05:33:06.104Z,67.31
2018-07-10T05:35:35.430Z,67.79
2018-07-10T05:38:06.063Z,68.90
2018-07-10T05:40:35.740Z,70.43
2018-07-10T05:43:09.009Z,71.40
2018-07-10T05:45:38.740Z,74.33
2018-07-10T05:48:07.157Z,76.09
2018-07-10T05:50:37.134Z,77.80
2018-07-10T05:53:07.941Z,75.99
2018-07-10T05:55:36.316Z,76.96
2018-07-10T05:58:05.463Z,77.19
2018-07-10T06:00:33.820Z,80.58
2018-07-10T06:03:02.259Z,81.62
2018-07-10T06:05:31.737Z,85.90
2018-07-10T06:08:00.826Z,86.80
2018-07-10T06:10:29.213Z,85.20
2018-07-10T06:12:59.021Z,88.07
2018-07-10T06:15:27.389Z,88.53
2018-07-10T06:17:55.845Z,89.08
2018-07-10T06:20:24.193Z,89.31
2018-07-10T06:22:53.487Z,90.35
2018-07-10T06:25:23.430Z,91.37
2018-07-10T06:28:03.229Z,91.18
2018-07-10T06:30:32.280Z,92.05
2018-07-10T06:33:05.704Z,90.95
2018-07-10T06:35:43.657Z,90.58
2018-07-10T06:38:13.609Z,88.90
2018-07-10T06:40:44.924Z,90.00
2018-07-10T06:43:47.730Z,89.77
2018-07-10T06:46:17.285Z,84.37
2018-07-10T06:48:48.502Z,88.57
2018-07-10T06:51:18.551Z,84.31
2018-07-10T06:53:47.302Z,86.69
2018-07-10T06:56:25.733Z,88.79
2018-07-10T06:58:54.731Z,88.61
2018-07-10T07:01:23.165Z,88.37
2018-07-10T07:03:59.161Z,87.36
2018-07-10T07:06:27.537Z,86.18
2018-07-10T07:08:56.453Z,87.91
2018-07-10T07:11:25.829Z,88.10
2018-07-10T07:13:54.241Z,90.07
2018-07-10T07:16:22.714Z,87.40
2018-07-10T07:18:51.593Z,91.11
2018-07-10T07:21:19.958Z,89.36
2018-07-10T07:23:48.817Z,88.40
2018-07-10T07:26:17.487Z,90.51
2018-07-10T07:28:45.863Z,90.12
2018-07-10T07:31:15.282Z,91.47
2018-07-10T07:33:43.645Z,90.21
2018-07-10T07:36:13.277Z,88.63
2018-07-10T07:38:41.653Z,89.56
2018-07-10T07:41:10.675Z,91.96
2018-07-10T07:43:39.131Z,91.60
2018-07-10T07:46:07.528Z,90.29
2018-07-10T07:48:35.909Z,88.50
2018-07-10T07:51:05.786Z,88.31
2018-07-10T07:53:34.729Z,87.98
2018-07-10T07:56:05.445Z,89.90
2018-07-10T07:58:33.904Z,88.59
2018-07-10T08:01:04.442Z,84.34
2018-07-10T08:03:34.765Z,86.89
2018-07-10T08:06:04.924Z,86.96
2018-07-10T08:08:35.641Z,85.10
2018-07-10T08:11:04.430Z,86.21
2018-07-10T08:13:33.893Z,85.36
2018-07-10T08:16:04.581Z,83.67
2018-07-10T08:18:34.745Z,86.34
2018-07-10T08:21:04.662Z,87.17
2018-07-10T08:23:34.681Z,88.78
2018-07-10T08:26:04.626Z,91.48
2018-07-10T08:28:35.138Z,91.53
2018-07-10T08:31:03.798Z,93.67
2018-07-10T08:33:33.821Z,90.18
2018-07-10T08:36:04.155Z,90.62
2018-07-10T08:38:40.782Z,91.20
2018-07-10T08:41:13.725Z,91.53
2018-07-10T08:43:42.292Z,90.87
2018-07-10T08:46:11.905Z,89.57
2018-07-10T08:48:40.825Z,90.44
2018-07-10T08:51:09.198Z,89.28
2018-07-10T08:53:37.565Z,86.03
2018-07-10T08:56:06.202Z,88.93
2018-07-10T08:58:36.015Z,85.71
2018-07-10T09:01:05.418Z,85.57
2018-07-10T09:03:34.695Z,86.30
2018-07-10T09:06:03.747Z,84.33
2018-07-10T09:08:32.810Z,86.78
2018-07-10T09:11:01.983Z,85.13
2018-07-10T09:13:30.406Z,86.85
2018-07-10T09:15:58.852Z,84.03
2018-07-10T09:18:28.114Z,88.48
2018-07-10T09:20:56.552Z,88.50
2018-07-10T09:23:24.952Z,85.12
2018-07-10T09:25:56.482Z,86.99
2018-07-10T09:28:25.936Z,86.97
2018-07-10T09:30:54.328Z,87.17
2018-07-10T09:33:22.817Z,88.59
2018-07-10T09:35:51.880Z,84.82
2018-07-10T09:38:20.239Z,85.52
2018-07-10T09:40:48.679Z,86.87
2018-07-10T09:43:17.059Z,82.75
2018-07-10T09:45:45.439Z,85.35
2018-07-10T09:48:13.818Z,81.43
2018-07-10T09:50:42.186Z,82.47
2018-07-10T09:53:10.563Z,80.71
2018-07-10T09:55:38.951Z,83.17
2018-07-10T09:58:08.052Z,77.77
2018-07-10T10:00:42.514Z,79.86
2018-07-10T10:03:11.143Z,78.06
2018-07-10T10:05:41.629Z,76.77
2018-07-10T10:08:10.316Z,81.29
2018-07-10T10:10:38.918Z,78.81
2018-07-10T10:13:07.348Z,80.04
2018-07-10T10:15:37.327Z,78.72
2018-07-10T10:18:09.522Z,76.74
2018-07-10T10:20:39.396Z,77.10
2018-07-10T10:23:08.426Z,77.62
2018-07-10T10:25:38.932Z,75.36
2018-07-10T10:28:08.655Z,76.34
2018-07-10T10:30:38.191Z,73.80
2018-07-10T10:33:06.960Z,74.36
2018-07-10T10:35:37.115Z,74.49
2018-07-10T10:38:06.194Z,76.49
2018-07-10T10:40:37.708Z,76.54
2018-07-10T10:43:08.425Z,75.23
2018-07-10T10:45:38.035Z,74.31
2018-07-10T10:48:07.007Z,76.31
2018-07-10T10:50:35.873Z,75.85
2018-07-10T10:53:05.893Z,78.71
2018-07-10T10:55:35.006Z,76.31
2018-07-10T10:58:06.029Z,77.02
2018-07-10T11:00:35.421Z,77.84
2018-07-10T11:03:05.409Z,74.39
2018-07-10T11:05:35.420Z,76.67
2018-07-10T11:08:03.903Z,76.68
2018-07-10T11:10:34.238Z,75.88
2018-07-10T11:13:03.873Z,76.87
2018-07-10T11:15:38.698Z,73.62
2018-07-10T11:18:09.389Z,72.21
2018-07-10T11:20:59.129Z,73.05
2018-07-10T11:23:48.381Z,72.00
2018-07-10T11:26:30.200Z,73.11
2018-07-10T11:28:59.492Z,72.97
2018-07-10T11:31:27.943Z,71.24
2018-07-10T11:33:56.298Z,71.66
2018-07-10T11:36:24.684Z,72.76
2018-07-10T11:38:53.373Z,73.75
2018-07-10T11:41:21.736Z,73.58
2018-07-10T11:43:50.087Z,72.23
2018-07-10T11:46:18.453Z,73.62
2018-07-10T11:48:46.906Z,76.48
2018-07-10T11:51:15.269Z,76.42
2018-07-10T11:53:43.630Z,75.62
2018-07-10T11:56:13.274Z,74.26
2018-07-10T11:58:41.629Z,76.34
2018-07-10T12:01:09.997Z,75.55
2018-07-10T12:03:39.726Z,73.22
2018-07-10T12:06:09.302Z,75.02
2018-07-10T12:08:37.714Z,75.95
2018-07-10T12:11:12.265Z,78.29
2018-07-10T12:13:41.130Z,78.76
2018-07-10T12:16:10.088Z,78.70
2018-07-10T12:18:38.565Z,77.44
2018-07-10T12:21:07.697Z,78.64
2018-07-10T12:23:36.250Z,78.33
2018-07-10T12:26:08.300Z,79.19
2018-07-10T12:28:36.684Z,79.91
2018-07-10T12:31:06.442Z,77.66
2018-07-10T12:33:35.436Z,81.17
2018-07-10T12:36:03.810Z,81.15
2018-07-10T12:38:34.045Z,80.96
2018-07-10T12:41:03.782Z,79.04
2018-07-10T12:43:32.894Z,77.11
2018-07-10T12:46:02.024Z,76.12
2018-07-10T12:48:30.969Z,75.02
2018-07-10T12:50:59.339Z,77.01
2018-07-10T12:53:27.741Z,75.42
2018-07-10T12:55:56.454Z,74.97
2018-07-10T12:58:26.213Z,76.17
2018-07-10T13:00:55.237Z,76.34
2018-07-10T13:03:23.937Z,75.72
2018-07-10T13:05:56.056Z,75.80
2018-07-10T13:08:24.414Z,76.14
2018-07-10T13:10:54.301Z,78.62
2018-07-10T13:13:22.776Z,78.42
2018-07-10T13:15:51.181Z,75.95
2018-07-10T13:18:20.998Z,79.82
2018-07-10T13:20:49.460Z,78.64
2018-07-10T13:23:17.914Z,78.86
2018-07-10T13:25:46.277Z,78.38
2018-07-10T13:28:14.641Z,76.81
2018-07-10T13:30:43.040Z,76.44
2018-07-10T13:33:11.423Z,77.82
2018-07-10T13:35:40.696Z,77.74
2018-07-10T13:38:09.082Z,78.20
2018-07-10T13:40:38.242Z,76.37
2018-07-10T13:43:06.714Z,77.63
2018-07-10T13:45:36.089Z,81.21
2018-07-10T13:48:05.378Z,81.11
2018-07-10T13:50:34.625Z,81.93
2018-07-10T13:53:04.633Z,82.17
2018-07-10T13:55:35.027Z,83.35
2018-07-10T13:58:08.442Z,83.74
2018-07-10T14:00:39.491Z,82.87
2018-07-10T14:03:08.022Z,86.37
2018-07-10T14:05:36.390Z,82.97
2018-07-10T14:08:05.982Z,83.50
2018-07-10T14:10:35.078Z,85.04
2018-07-10T14:13:05.017Z,85.75
2018-07-10T14:15:35.756Z,84.45
2018-07-10T14:18:04.501Z,85.81
2018-07-10T14:20:39.307Z,85.63
2018-07-10T14:23:07.695Z,87.09
2018-07-10T14:25:36.066Z,84.04
2018-07-10T14:28:05.880Z,85.53
2018-07-10T14:30:34.701Z,86.29
2018-07-10T14:33:04.800Z,88.20
2018-07-10T14:35:35.309Z,83.65
2018-07-10T14:38:06.889Z,84.13
2018-07-10T14:40:36.923Z,83.66
2018-07-10T14:43:06.405Z,83.10
2018-07-10T14:45:36.214Z,80.92
2018-07-10T14:48:05.922Z,82.75
2018-07-10T14:50:35.758Z,79.70
2018-07-10T14:53:06.365Z,75.20
2018-07-10T14:55:35.666Z,69.90
2018-07-10T14:58:05.640Z,67.93
2018-07-10T15:00:34.952Z,70.74
2018-07-10T15:03:04.966Z,71.22
2018-07-10T15:05:35.136Z,73.61
2018-07-10T15:08:05.264Z,73.24
2018-07-10T15:10:35.543Z,74.18
2018-07-10T15:13:03.917Z,75.16
2018-07-10T15:15:34.751Z,73.32
2018-07-10T15:18:09.310Z,76.18
2018-07-10T15:20:37.686Z,77.37
2018-07-10T15:23:06.874Z,75.71
2018-07-10T15:25:36.241Z,75.25
2018-07-10T15:28:06.065Z,74.96
2018-07-10T15:30:36.021Z,72.05
2018-07-10T15:33:05.190Z,75.38
2018-07-10T15:35:35.834Z,70.42
2018-07-10T15:38:04.734Z,70.65
2018-07-10T15:40:33.993Z,70.99
2018-07-10T15:43:03.994Z,72.60
2018-07-10T15:45:34.176Z,73.47
2018-07-10T15:48:03.890Z,71.57
2018-07-10T15:50:34.397Z,70.50
2018-07-10T15:53:04.426Z,73.10
2018-07-10T15:55:33.920Z,72.87
2018-07-10T15:58:04.881Z,72.98
2018-07-10T16:00:35.982Z,74.35
2018-07-10T16:03:05.908Z,73.39
2018-07-10T16:05:35.376Z,73.45
2018-07-10T16:08:24.622Z,73.52
2018-07-10T16:10:55.774Z,74.77
2018-07-10T16:13:26.563Z,76.02
2018-07-10T16:15:56.944Z,76.99
2018-07-10T16:18:26.777Z,75.40
2018-07-10T16:20:57.910Z,76.00
2018-07-10T16:23:26.308Z,77.03
2018-07-10T16:26:04.251Z,77.21
2018-07-10T16:28:35.306Z,77.75
2018-07-10T16:31:05.599Z,77.90
2018-07-10T16:33:34.746Z,78.75
2018-07-10T16:36:06.857Z,77.27
2018-07-10T16:38:36.393Z,76.92
2018-07-10T16:41:10.733Z,78.04
2018-07-10T16:43:39.365Z,77.77
2018-07-10T16:46:07.735Z,77.01
2018-07-10T16:48:47.125Z,79.37
2018-07-10T16:51:21.065Z,78.21
2018-07-10T16:53:54.447Z,77.65
2018-07-10T16:56:22.807Z,79.01
2018-07-10T16:58:51.200Z,78.44
2018-07-10T17:01:19.595Z,79.55
2018-07-10T17:03:47.967Z,79.38
2018-07-10T17:06:16.347Z,80.97
2018-07-10T17:08:44.713Z,80.55
2018-07-10T17:11:13.088Z,81.04
2018-07-10T17:13:41.463Z,77.98
2018-07-10T17:16:10.522Z,78.85
2018-07-10T17:18:38.885Z,79.26
2018-07-10T17:21:07.602Z,79.97
2018-07-10T17:23:35.997Z,80.71
2018-07-10T17:26:05.363Z,80.58
2018-07-10T17:28:36.429Z,80.42
2018-07-10T17:31:05.489Z,80.70
2018-07-10T17:33:35.037Z,80.71
2018-07-10T17:36:05.225Z,79.61
2018-07-10T17:38:36.007Z,79.66
2018-07-10T17:41:05.904Z,80.18
2018-07-10T17:43:35.798Z,79.56
2018-07-10T17:46:04.761Z,79.30
2018-07-10T17:48:34.905Z,78.92
2018-07-10T17:51:05.809Z,81.71
2018-07-10T17:53:34.813Z,82.91
2018-07-10T17:56:04.949Z,81.28
2018-07-10T17:58:34.932Z,80.11
2018-07-10T18:01:05.463Z,80.57
2018-07-10T18:03:35.048Z,81.13
2018-07-10T18:06:04.333Z,80.45
2018-07-10T18:08:34.391Z,80.28
2018-07-10T18:11:04.217Z,79.93
2018-07-10T18:13:34.279Z,81.97
2018-07-10T18:16:03.817Z,83.56
2018-07-10T18:18:34.389Z,81.99
2018-07-10T18:21:05.146Z,82.06
2018-07-10T18:23:36.621Z,82.79
2018-07-10T18:26:06.262Z,82.96
2018-07-10T18:28:35.727Z,83.67
2018-07-10T18:31:06.562Z,82.23
2018-07-10T18:33:36.053Z,82.21
2018-07-10T18:36:05.292Z,81.31
2018-07-10T18:38:36.755Z,82.23
2018-07-10T18:41:06.566Z,81.02
2018-07-10T18:43:36.135Z,83.32
2018-07-10T18:46:05.955Z,83.63
2018-07-10T18:48:36.007Z,84.22
2018-07-10T18:51:05.694Z,83.77
2018-07-10T18:53:35.834Z,83.11
2018-07-10T18:56:05.649Z,84.14
2018-07-10T18:58:47.721Z,85.26
2018-07-10T19:01:23.604Z,86.19
2018-07-10T19:03:52.474Z,84.38
2018-07-10T19:06:23.075Z,83.30
2018-07-10T19:08:52.044Z,86.79
2018-07-10T19:11:24.878Z,87.61
2018-07-10T19:13:53.910Z,87.35
2018-07-10T19:16:24.189Z,87.35
2018-07-10T19:18:53.862Z,88.49
2018-07-10T19:21:26.104Z,88.97
2018-07-10T19:23:58.219Z,89.43
2018-07-10T19:26:28.700Z,90.88
2018-07-10T19:29:20.158Z,89.47
2018-07-10T19:31:49.985Z,90.47
2018-07-10T19:34:18.857Z,91.89
2018-07-10T19:36:48.649Z,90.19
2018-07-10T19:39:17.445Z,89.66
2018-07-10T19:41:46.447Z,90.89
2018-07-10T19:44:15.322Z,91.46
2018-07-10T19:46:44.099Z,92.09
2018-07-10T19:49:12.937Z,91.65
2018-07-10T19:51:42.337Z,91.11
2018-07-10T19:54:14.333Z,91.98
2018-07-10T19:56:43.188Z,92.39
2018-07-10T19:59:13.898Z,93.17
2018-07-10T20:01:58.215Z,92.75
2018-07-10T20:05:32.413Z,93.58
2018-07-10T20:08:20.197Z,93.11
2018-07-10T20:11:07.222Z,92.88
2018-07-10T20:13:45.417Z,93.21
2018-07-10T20:16:51.701Z,94.34
2018-07-10T20:19:45.444Z,95.10
2018-07-10T20:22:23.270Z,94.52
2018-07-10T20:25:12.501Z,94.20
2018-07-10T20:27:47.500Z,94.59
2018-07-10T20:31:25.027Z,94.86
2018-07-10T20:36:09.576Z,95.22
2018-07-10T20:38:38.802Z,95.75
2018-07-10T20:41:09.017Z,94.44
2018-07-10T20:43:45.546Z,94.97
2018-07-10T20:46:16.875Z,95.81
2018-07-10T20:48:56.283Z,95.50
2018-07-10T20:51:35.125Z,94.85
2018-07-10T20:54:16.676Z,96.16
2018-07-10T20:56:53.626Z,96.43
2018-07-10T20:59:27.370Z,97.05
2018-07-10T21:01:59.530Z,97.82
2018-07-10T21:04:32.333Z,98.15
2018-07-10T21:07:04.705Z,98.39
2018-07-10T21:10:15.086Z,98.34
2018-07-10T21:12:54.180Z,98.26
2018-07-10T21:15:29.411Z,97.64
2018-07-10T21:20:11.790Z,97.02
2018-07-10T21:22:50.157Z,96.68
2018-07-10T21:25:22.701Z,97.51
2018-07-10T21:27:59.934Z,97.37
2018-07-10T21:30:34.248Z,95.92
2018-07-10T21:34:11.090Z,97.15
2018-07-10T21:36:56.808Z,98.74
2018-07-10T21:39:36.425Z,98.02
2018-07-10T21:42:18.795Z,99.08
2018-07-10T21:44:52.031Z,99.62
2018-07-10T21:47:32.170Z,100.00
2018-07-10T21:50:04.428Z,100.00
2018-07-10T21:52:34.415Z,100.00
2018-07-10T21:55:03.836Z,100.00
2018-07-10T21:57:37.922Z,100.00
2018-07-10T22:00:06.261Z,100.00
2018-07-10T22:02:35.562Z,100.00
2018-07-10T22:05:06.134Z,100.00
2018-07-10T22:07:35.090Z,100.00
2018-07-10T22:10:06.868Z,100.00
2018-07-10T22:12:46.441Z,100.00
2018-07-10T22:15:14.810Z,100.00
2018-07-10T22:17:44.014Z,100.00
2018-07-10T22:20:12.365Z,100.00
2018-07-10T22:22:40.709Z,100.00
2018-07-10T22:25:09.568Z,100.00
2018-07-10T22:27:41.658Z,100.00
2018-07-10T22:30:22.862Z,100.00
2018-07-10T22:32:55.146Z,100.00
2018-07-10T22:35:24.262Z,100.00
2018-07-10T22:37:53.154Z,100.00
2018-07-10T22:40:21.513Z,100.00
2018-07-10T22:42:49.879Z,100.00
2018-07-10T22:45:19.070Z,100.00
2018-07-10T22:47:47.621Z,100.00
2018-07-10T22:50:21.067Z,100.00
2018-07-10T22:52:55.780Z,100.00
2018-07-10T22:55:28.102Z,100.00
2018-07-10T22:57:59.417Z,100.00
2018-07-10T23:00:34.639Z,100.00
2018-07-10T23:03:34.899Z,100.00
2018-07-10T23:06:03.978Z,100.00
2018-07-10T23:08:34.558Z,100.00
2018-07-10T23:11:05.577Z,100.00
2018-07-10T23:13:37.042Z,100.00
2018-07-10T23:16:06.485Z,100.00
2018-07-10T23:18:36.474Z,100.00
2018-07-10T23:21:06.053Z,100.00
2018-07-10T23:23:35.336Z,100.00
2018-07-10T23:26:05.922Z,100.00
2018-07-10T23:28:34.741Z,100.00
2018-07-10T23:31:05.613Z,100.00
2018-07-10T23:33:35.418Z,100.00
2018-07-10T23:36:05.999Z,100.00
2018-07-10T23:38:39.718Z,100.00
2018-07-10T23:41:13.641Z,100.00
2018-07-10T23:43:44.410Z,100.00
2018-07-10T23:46:19.488Z,100.00
2018-07-10T23:48:47.881Z,100.00
2018-07-10T23:51:16.240Z,100.00
2018-07-10T23:53:47.551Z,100.00
2018-07-10T23:56:16.027Z,100.00
2018-07-10T23:58:45.150Z,100.00
